Terminal Aerodrome Forecast
Issued by NWS St Louis, MO

Home | Current Version | Previous Version | Graphics & Text | Print | Product List | Glossary On
Versions: 1 2 3 4 5 6 7 8 9 10 11 12 13 14 15 16 17 18 19 20 21 22 23 24 25 26 27 28
000
FTUS43 KLSX 211200 AAA
TAFSTL
TAF AMD
KSTL 211238Z 2113/2218 24008KT P6SM VCSH FEW060 SCT120
      TEMPO 2114/2116 5SM -SHRA SCT050 BKN120
     FM211800 25008KT P6SM VCTS SCT060CB BKN120
      TEMPO 2120/2124 5SM -SHRA BKN050
     FM220400 29008KT P6SM SCT060 BKN100
     FM220600 32008KT P6SM SKC
     FM221500 35010KT P6SM SKC=

USA.gov is the U.S. government's official web portal to all federal, state and local government web resources and services.